Time,TemperatureF,DewpointF,PressureIn,WindDirection,WindDirectionDegrees,WindSpeedMPH,WindSpeedGustMPH,Humidity,HourlyPrecipIn,Conditions,Clouds,dailyrainin,SoftwareType,DateUTC
2013-01-12 00:05:00,38.1,20.0,30.04,ESE,120,1.0,1.0,49,0.00,,,0.00,weatherlink.com 1.10,2013-01-12 07:05:00,
2013-01-12 00:20:00,38.3,20.0,30.04,ESE,117,2.0,3.0,48,0.00,,,0.00,weatherlink.com 1.10,2013-01-12 07:20:00,
2013-01-12 00:35:00,38.5,20.0,30.03,ESE,118,0.0,3.0,48,0.00,,,0.00,weatherlink.com 1.10,2013-01-12 07:35:00,
2013-01-12 00:50:00,38.2,20.0,30.03,SE,139,0.0,1.0,49,0.00,,,0.00,weatherlink.com 1.10,2013-01-12 07:50:00,
2013-01-12 01:05:00,38.4,22.0,30.03,SE,132,0.0,1.0,51,0.00,,,0.00,weatherlink.com 1.10,2013-01-12 08:05:00,
2013-01-12 01:20:00,39.0,22.0,30.03,SE,131,0.0,2.0,51,0.00,,,0.00,weatherlink.com 1.10,2013-01-12 08:20:00,
2013-01-12 01:35:00,38.7,22.0,30.03,East,94,1.0,2.0,52,0.00,,,0.00,weatherlink.com 1.10,2013-01-12 08:35:00,
2013-01-12 01:50:00,38.4,22.0,30.04,ESE,119,1.0,2.0,52,0.00,,,0.00,weatherlink.com 1.10,2013-01-12 08:50:00,
2013-01-12 02:05:00,39.1,23.0,30.04,East,93,1.0,5.0,53,0.00,,,0.00,weatherlink.com 1.10,2013-01-12 09:05:00,
2013-01-12 02:20:00,40.1,23.0,30.04,SSW,196,0.0,3.0,51,0.00,,,0.00,weatherlink.com 1.10,2013-01-12 09:20:00,
2013-01-12 02:35:00,39.1,23.0,30.04,SSW,201,0.0,0.0,53,0.00,,,0.00,weatherlink.com 1.10,2013-01-12 09:35:00,
2013-01-12 02:50:00,38.6,24.0,30.03,SSW,201,0.0,0.0,55,0.00,,,0.00,weatherlink.com 1.10,2013-01-12 09:50:00,
2013-01-12 03:05:00,37.3,23.0,30.03,SSE,150,0.0,2.0,57,0.00,,,0.00,weatherlink.com 1.10,2013-01-12 10:05:00,
2013-01-12 03:21:00,37.1,23.0,30.03,SSE,153,0.0,1.0,58,0.00,,,0.00,weatherlink.com 1.10,2013-01-12 10:21:00,
2013-01-12 03:35:00,36.1,23.0,30.03,SSE,159,0.0,1.0,60,0.00,,,0.00,weatherlink.com 1.10,2013-01-12 10:35:00,
2013-01-12 03:50:00,36.9,24.0,30.02,SSE,152,0.0,1.0,60,0.00,,,0.00,weatherlink.com 1.10,2013-01-12 10:50:00,
2013-01-12 04:05:00,38.1,24.0,30.02,ESE,118,1.0,1.0,58,0.00,,,0.00,weatherlink.com 1.10,2013-01-12 11:05:00,
2013-01-12 04:20:00,38.0,24.0,30.01,ESE,122,0.0,3.0,58,0.00,,,0.00,weatherlink.com 1.10,2013-01-12 11:20:00,
2013-01-12 04:35:00,37.6,24.0,30.02,ESE,115,0.0,1.0,59,0.00,,,0.00,weatherlink.com 1.10,2013-01-12 11:35:00,
2013-01-12 04:50:00,36.3,24.0,30.02,ESE,116,0.0,0.0,62,0.00,,,0.00,weatherlink.com 1.10,2013-01-12 11:50:00,
2013-01-12 05:05:00,36.5,24.0,30.02,ESE,116,0.0,1.0,61,0.00,,,0.00,weatherlink.com 1.10,2013-01-12 12:05:00,
2013-01-12 05:20:00,35.5,24.0,30.01,SSE,150,1.0,2.0,63,0.00,,,0.00,weatherlink.com 1.10,2013-01-12 12:20:00,
2013-01-12 05:35:00,35.1,24.0,30.02,SSE,157,0.0,1.0,63,0.00,,,0.00,weatherlink.com 1.10,2013-01-12 12:35:00,
2013-01-12 05:50:00,34.6,23.0,30.03,SSE,156,0.0,0.0,64,0.00,,,0.00,weatherlink.com 1.10,2013-01-12 12:50:00,
2013-01-12 06:05:00,35.7,25.0,30.03,SSE,156,0.0,1.0,64,0.00,,,0.00,weatherlink.com 1.10,2013-01-12 13:05:00,
2013-01-12 06:20:00,36.0,24.0,30.04,SSE,156,0.0,0.0,63,0.00,,,0.00,weatherlink.com 1.10,2013-01-12 13:20:00,
2013-01-12 06:35:00,35.6,24.0,30.05,SE,143,0.0,0.0,64,0.00,,,0.00,weatherlink.com 1.10,2013-01-12 13:35:00,
2013-01-12 06:50:00,35.8,25.0,30.05,SSE,156,0.0,2.0,64,0.00,,,0.00,weatherlink.com 1.10,2013-01-12 13:50:00,
2013-01-12 07:05:00,35.8,25.0,30.06,SSE,156,0.0,0.0,65,0.00,,,0.00,weatherlink.com 1.10,2013-01-12 14:05:00,
2013-01-12 07:21:00,37.5,25.0,30.07,NNE,30,0.0,2.0,62,0.00,,,0.00,weatherlink.com 1.10,2013-01-12 14:21:00,
2013-01-12 07:36:00,38.4,26.0,30.08,NNE,30,0.0,0.0,61,0.00,,,0.00,weatherlink.com 1.10,2013-01-12 14:36:00,
2013-01-12 07:51:00,38.0,26.0,30.09,ESE,110,0.0,0.0,62,0.00,,,0.00,weatherlink.com 1.10,2013-01-12 14:51:00,
2013-01-12 08:06:00,38.6,26.0,30.10,NNE,18,0.0,1.0,60,0.00,,,0.00,weatherlink.com 1.10,2013-01-12 15:06:00,
2013-01-12 08:21:00,39.7,25.0,30.11,NW,314,0.0,2.0,57,0.00,,,0.00,weatherlink.com 1.10,2013-01-12 15:21:00,
2013-01-12 08:36:00,42.0,23.0,30.12,NE,51,1.0,2.0,48,0.00,,,0.00,weatherlink.com 1.10,2013-01-12 15:36:00,
2013-01-12 09:05:00,44.7,23.0,30.12,NE,43,2.0,3.0,43,0.00,,,0.00,weatherlink.com 1.10,2013-01-12 16:05:00,
2013-01-12 09:20:00,46.7,24.0,30.13,NNE,16,4.0,7.0,41,0.00,,,0.00,weatherlink.com 1.10,2013-01-12 16:20:00,
2013-01-12 09:51:00,48.6,24.0,30.13,NNE,18,8.0,12.0,38,0.00,,,0.00,weatherlink.com 1.10,2013-01-12 16:51:00,
2013-01-12 10:06:00,49.1,24.0,30.13,NNE,20,9.0,12.0,37,0.00,,,0.00,weatherlink.com 1.10,2013-01-12 17:06:00,
2013-01-12 10:21:00,49.8,23.0,30.14,NNW,338,11.0,14.0,35,0.00,,,0.00,weatherlink.com 1.10,2013-01-12 17:21:00,
2013-01-12 10:36:00,50.4,22.0,30.14,North,10,6.0,10.0,33,0.00,,,0.00,weatherlink.com 1.10,2013-01-12 17:36:00,
2013-01-12 10:51:00,50.9,22.0,30.14,North,354,7.0,13.0,32,0.00,,,0.00,weatherlink.com 1.10,2013-01-12 17:51:00,
2013-01-12 11:07:00,51.5,19.0,30.13,NNW,338,7.0,13.0,28,0.00,,,0.00,weatherlink.com 1.10,2013-01-12 18:07:00,
2013-01-12 11:22:00,52.1,20.0,30.13,North,6,9.0,14.0,28,0.00,,,0.00,weatherlink.com 1.10,2013-01-12 18:22:00,
2013-01-12 11:37:00,52.4,19.0,30.13,NNW,333,9.0,13.0,27,0.00,,,0.00,weatherlink.com 1.10,2013-01-12 18:37:00,
2013-01-12 11:52:00,53.1,19.0,30.12,ENE,77,2.0,14.0,26,0.00,,,0.00,weatherlink.com 1.10,2013-01-12 18:52:00,
2013-01-12 12:07:00,53.2,18.0,30.12,WNW,303,5.0,12.0,25,0.00,,,0.00,weatherlink.com 1.10,2013-01-12 19:07:00,
2013-01-12 12:22:00,54.2,18.0,30.11,NW,310,3.0,11.0,24,0.00,,,0.00,weatherlink.com 1.10,2013-01-12 19:22:00,
2013-01-12 12:37:00,54.2,17.0,30.11,West,278,4.0,11.0,23,0.00,,,0.00,weatherlink.com 1.10,2013-01-12 19:37:00,
2013-01-12 12:52:00,54.5,15.0,30.10,North,1,4.0,11.0,21,0.00,,,0.00,weatherlink.com 1.10,2013-01-12 19:52:00,
2013-01-12 13:07:00,54.9,15.0,30.10,NW,311,3.0,7.0,21,0.00,,,0.00,weatherlink.com 1.10,2013-01-12 20:07:00,
2013-01-12 13:22:00,54.6,14.0,30.09,North,352,3.0,12.0,20,0.00,,,0.00,weatherlink.com 1.10,2013-01-12 20:22:00,
2013-01-12 13:37:00,55.0,14.0,30.09,WNW,288,4.0,10.0,20,0.00,,,0.00,weatherlink.com 1.10,2013-01-12 20:37:00,
2013-01-12 13:52:00,55.0,13.0,30.09,WNW,290,6.0,12.0,19,0.00,,,0.00,weatherlink.com 1.10,2013-01-12 20:52:00,
2013-01-12 14:07:00,55.3,15.0,30.09,NNW,340,3.0,11.0,20,0.00,,,0.00,weatherlink.com 1.10,2013-01-12 21:07:00,
2013-01-12 14:22:00,55.6,16.0,30.09,NW,304,3.0,6.0,21,0.00,,,0.00,weatherlink.com 1.10,2013-01-12 21:22:00,
2013-01-12 14:37:00,55.2,15.0,30.09,NW,307,3.0,12.0,20,0.00,,,0.00,weatherlink.com 1.10,2013-01-12 21:37:00,
2013-01-12 14:52:00,55.2,15.0,30.09,WNW,295,4.0,10.0,20,0.00,,,0.00,weatherlink.com 1.10,2013-01-12 21:52:00,
2013-01-12 15:07:00,55.1,15.0,30.09,WNW,290,3.0,10.0,20,0.00,,,0.00,weatherlink.com 1.10,2013-01-12 22:07:00,
2013-01-12 15:21:00,55.5,16.0,30.09,West,281,4.0,9.0,21,0.00,,,0.00,weatherlink.com 1.10,2013-01-12 22:21:00,
2013-01-12 15:37:00,55.5,15.0,30.09,North,11,4.0,9.0,20,0.00,,,0.00,weatherlink.com 1.10,2013-01-12 22:37:00,
2013-01-12 15:51:00,55.5,15.0,30.09,WNW,288,5.0,7.0,20,0.00,,,0.00,weatherlink.com 1.10,2013-01-12 22:51:00,
2013-01-12 16:06:00,55.5,15.0,30.08,NNW,335,5.0,9.0,20,0.00,,,0.00,weatherlink.com 1.10,2013-01-12 23:06:00,
2013-01-12 16:22:00,55.2,15.0,30.08,NW,314,4.0,9.0,20,0.00,,,0.00,weatherlink.com 1.10,2013-01-12 23:22:00,
2013-01-12 16:37:00,55.0,16.0,30.08,NNW,328,5.0,7.0,21,0.00,,,0.00,weatherlink.com 1.10,2013-01-12 23:37:00,
2013-01-12 16:52:00,54.7,15.0,30.08,NNE,22,2.0,5.0,21,0.00,,,0.00,weatherlink.com 1.10,2013-01-12 23:52:00,
2013-01-12 17:07:00,54.3,15.0,30.08,NE,41,2.0,4.0,21,0.00,,,0.00,weatherlink.com 1.10,2013-01-13 00:07:00,
2013-01-12 17:22:00,53.8,16.0,30.08,NW,326,1.0,3.0,22,0.00,,,0.00,weatherlink.com 1.10,2013-01-13 00:22:00,
2013-01-12 17:37:00,52.8,16.0,30.08,WNW,293,1.0,4.0,23,0.00,,,0.00,weatherlink.com 1.10,2013-01-13 00:37:00,
2013-01-12 17:52:00,51.8,17.0,30.08,NW,307,0.0,2.0,25,0.00,,,0.00,weatherlink.com 1.10,2013-01-13 00:52:00,
2013-01-12 18:07:00,50.6,16.0,30.08,NW,307,0.0,0.0,25,0.00,,,0.00,weatherlink.com 1.10,2013-01-13 01:07:00,
2013-01-12 18:22:00,49.1,17.0,30.08,NW,307,0.0,0.0,28,0.00,,,0.00,weatherlink.com 1.10,2013-01-13 01:22:00,
2013-01-12 18:37:00,47.8,17.0,30.08,WSW,256,0.0,0.0,29,0.00,,,0.00,weatherlink.com 1.10,2013-01-13 01:37:00,
2013-01-12 18:55:00,45.3,15.0,30.09,WSW,256,0.0,0.0,30,0.00,,,0.00,weatherlink.com 1.10,2013-01-13 01:55:00,
2013-01-12 19:07:00,45.8,17.0,30.09,WSW,257,0.0,0.0,32,0.00,,,0.00,weatherlink.com 1.10,2013-01-13 02:07:00,
2013-01-12 19:22:00,45.7,19.0,30.09,WSW,257,0.0,0.0,34,0.00,,,0.00,weatherlink.com 1.10,2013-01-13 02:22:00,
2013-01-12 19:37:00,44.4,18.0,30.10,WSW,257,0.0,0.0,35,0.00,,,0.00,weatherlink.com 1.10,2013-01-13 02:37:00,
2013-01-12 19:53:00,43.1,18.0,30.09,WSW,257,0.0,0.0,37,0.00,,,0.00,weatherlink.com 1.10,2013-01-13 02:53:00,
2013-01-12 20:07:00,43.2,18.0,30.10,WSW,257,0.0,0.0,37,0.00,,,0.00,weatherlink.com 1.10,2013-01-13 03:07:00,
2013-01-12 20:23:00,41.6,18.0,30.10,WSW,257,0.0,0.0,38,0.00,,,0.00,weatherlink.com 1.10,2013-01-13 03:23:00,
2013-01-12 20:38:00,38.5,17.0,30.10,WSW,255,0.0,0.0,41,0.00,,,0.00,weatherlink.com 1.10,2013-01-13 03:38:00,
2013-01-12 20:52:00,37.6,17.0,30.10,WSW,248,0.0,0.0,44,0.00,,,0.00,weatherlink.com 1.10,2013-01-13 03:52:00,
2013-01-12 21:07:00,37.6,18.0,30.10,SSE,150,0.0,1.0,45,0.00,,,0.00,weatherlink.com 1.10,2013-01-13 04:07:00,
2013-01-12 21:22:00,36.9,18.0,30.11,SSE,153,1.0,1.0,46,0.00,,,0.00,weatherlink.com 1.10,2013-01-13 04:22:00,
2013-01-12 21:37:00,36.7,18.0,30.11,SSE,153,0.0,0.0,47,0.00,,,0.00,weatherlink.com 1.10,2013-01-13 04:37:00,
2013-01-12 21:52:00,37.8,19.0,30.11,SSE,153,0.0,0.0,46,0.00,,,0.00,weatherlink.com 1.10,2013-01-13 04:52:00,
2013-01-12 22:07:00,37.1,18.0,30.11,SSE,153,0.0,0.0,47,0.00,,,0.00,weatherlink.com 1.10,2013-01-13 05:07:00,
2013-01-12 22:22:00,37.9,19.0,30.11,SSE,153,0.0,0.0,47,0.00,,,0.00,weatherlink.com 1.10,2013-01-13 05:22:00,
2013-01-12 22:37:00,38.7,19.0,30.11,ESE,117,0.0,0.0,46,0.00,,,0.00,weatherlink.com 1.10,2013-01-13 05:37:00,
2013-01-12 22:52:00,36.3,18.0,30.12,ESE,118,0.0,0.0,48,0.00,,,0.00,weatherlink.com 1.10,2013-01-13 05:52:00,
2013-01-12 23:07:00,36.7,19.0,30.12,ESE,117,0.0,0.0,48,0.00,,,0.00,weatherlink.com 1.10,2013-01-13 06:07:00,
2013-01-12 23:22:00,35.4,18.0,30.12,ESE,117,0.0,0.0,50,0.00,,,0.00,weatherlink.com 1.10,2013-01-13 06:22:00,
2013-01-12 23:37:00,35.3,18.0,30.12,ESE,117,0.0,0.0,50,0.00,,,0.00,weatherlink.com 1.10,2013-01-13 06:37:00,
2013-01-12 23:53:00,35.9,18.0,30.12,ESE,117,0.0,0.0,49,0.00,,,0.00,weatherlink.com 1.10,2013-01-13 06:53:00,